Time;durP1;ratioP1;P1;durP2;ratioP2;P2;SDS_P1;SDS_P2;PMS_P1;PMS_P2;Temp;Humidity;BMP_temperature;BMP_pressure;BME280_temperature;BME280_humidity;BME280_pressure;Samples;Min_cycle;Max_cycle;Signal;HPM_P1;HPM_P2
2023/05/08 00:00:21;;;;;;;6.95;2.50;;;14.10;99.90;;;;;;5071356;28;20194;-72
2023/05/08 00:02:47;;;;;;;9.68;2.30;;;14.10;99.90;;;;;;5087618;28;20638;-72
2023/05/08 00:05:13;;;;;;;4.32;1.80;;;14.00;99.90;;;;;;5070347;28;20481;-72
2023/05/08 00:07:38;;;;;;;4.63;2.00;;;13.90;99.90;;;;;;5074322;28;20179;-72
2023/05/08 00:10:06;;;;;;;5.05;2.28;;;13.80;99.90;;;;;;5074503;28;20172;-73
2023/05/08 00:12:32;;;;;;;6.10;2.13;;;13.80;99.90;;;;;;5074381;28;20171;-72
2023/05/08 00:14:57;;;;;;;8.43;2.42;;;13.80;99.90;;;;;;5083656;28;20171;-73
2023/05/08 00:17:23;;;;;;;14.45;2.28;;;13.80;99.90;;;;;;5090832;28;20175;-73
2023/05/08 00:19:49;;;;;;;6.05;1.92;;;13.60;99.90;;;;;;5090588;28;20628;-73
2023/05/08 00:22:14;;;;;;;4.63;2.10;;;13.60;99.90;;;;;;5092173;28;20218;-73
2023/05/08 00:24:40;;;;;;;6.00;2.60;;;13.60;99.90;;;;;;5094126;28;20672;-72
2023/05/08 00:27:07;;;;;;;5.32;2.20;;;13.60;99.90;;;;;;5094391;28;20173;-72
2023/05/08 00:29:33;;;;;;;5.93;2.15;;;13.50;99.90;;;;;;5093994;28;20182;-72
2023/05/08 00:31:59;;;;;;;5.15;2.05;;;13.50;99.90;;;;;;5094007;28;20215;-72
2023/05/08 00:34:24;;;;;;;6.63;2.38;;;13.50;99.90;;;;;;5093536;28;20361;-72
2023/05/08 00:36:50;;;;;;;6.28;2.25;;;13.50;99.90;;;;;;5093891;28;20218;-72
2023/05/08 00:39:16;;;;;;;10.20;2.42;;;13.80;99.90;;;;;;5094383;28;20172;-72
2023/05/08 00:41:41;;;;;;;12.90;2.45;;;12.70;99.90;;;;;;5094310;28;20236;-72
2023/05/08 00:44:07;;;;;;;5.78;2.10;;;13.50;99.90;;;;;;5094155;28;20298;-72
2023/05/08 00:46:34;;;;;;;4.65;1.85;;;13.50;99.90;;;;;;5093943;28;20583;-73
2023/05/08 00:48:59;;;;;;;3.80;1.92;;;13.40;99.90;;;;;;5094046;28;20171;-73
2023/05/08 00:51:26;;;;;;;3.90;1.95;;;13.40;99.90;;;;;;5093995;28;20543;-73
2023/05/08 00:53:52;;;;;;;3.13;1.65;;;13.40;99.90;;;;;;5094066;28;20179;-73
2023/05/08 00:56:19;;;;;;;7.85;2.30;;;13.40;99.90;;;;;;5093574;28;20501;-73
2023/05/08 00:58:46;;;;;;;5.28;2.08;;;13.30;99.90;;;;;;5093816;28;20206;-74
2023/05/08 01:01:13;;;;;;;5.45;1.80;;;13.30;99.90;;;;;;5075836;28;20209;-74
2023/05/08 01:03:39;;;;;;;7.05;1.80;;;13.20;99.90;;;;;;5093651;28;20251;-74
2023/05/08 01:06:05;;;;;;;6.68;2.50;;;13.20;99.90;;;;;;5093973;28;20203;-74
2023/05/08 01:08:31;;;;;;;7.40;2.20;;;13.20;99.90;;;;;;5093636;28;20686;-74
2023/05/08 01:11:09;;;;;;;9.75;2.28;;;13.20;99.90;;;;;;5093771;28;20180;-75
2023/05/08 01:13:51;;;;;;;4.18;1.70;;;13.20;99.90;;;;;;5087550;28;20203;-74
2023/05/08 01:16:43;;;;;;;7.00;1.92;;;13.30;99.90;;;;;;5073253;28;20709;-75
2023/05/08 01:19:38;;;;;;;4.22;2.15;;;13.20;99.90;;;;;;5073837;28;20208;-75
2023/05/08 01:22:40;;;;;;;5.43;1.75;;;13.30;99.90;;;;;;5090304;28;20176;-75
2023/05/08 01:25:34;;;;;;;6.38;2.25;;;13.20;99.90;;;;;;5078311;28;20204;-76
2023/05/08 01:28:25;;;;;;;7.65;2.30;;;13.30;99.90;;;;;;5082573;28;20211;-77
2023/05/08 01:31:15;;;;;;;9.90;2.15;;;13.10;99.90;;;;;;5073086;28;20661;-70
2023/05/08 01:34:00;;;;;;;7.00;2.38;;;13.30;99.90;;;;;;5083460;28;20219;-74
2023/05/08 01:36:50;;;;;;;7.75;2.40;;;13.30;99.90;;;;;;5093022;28;20191;-74
2023/05/08 01:39:44;;;;;;;7.97;2.47;;;13.30;99.90;;;;;;5091472;28;20652;-73
2023/05/08 01:42:25;;;;;;;8.50;2.55;;;13.30;99.90;;;;;;5092893;28;20206;-73
2023/05/08 01:44:59;;;;;;;9.98;2.53;;;13.30;99.90;;;;;;5092789;28;20272;-73
2023/05/08 01:47:28;;;;;;;7.00;2.47;;;13.40;99.90;;;;;;5072575;28;20191;-73
2023/05/08 01:50:23;;;;;;;8.45;2.70;;;13.40;99.90;;;;;;5072454;28;20175;-73
2023/05/08 01:52:52;;;;;;;5.85;2.60;;;13.30;99.90;;;;;;5054280;28;20637;-74
2023/05/08 01:55:29;;;;;;;8.85;2.70;;;13.40;99.90;;;;;;5072372;28;20204;-73
2023/05/08 01:57:57;;;;;;;6.60;2.30;;;13.40;99.90;;;;;;5072399;28;20165;-73
2023/05/08 02:00:25;;;;;;;4.63;2.17;;;13.40;99.90;;;;;;5072260;28;20180;-73
2023/05/08 02:02:54;;;;;;;12.20;2.67;;;13.40;99.90;;;;;;5071952;28;20227;-74
2023/05/08 02:05:24;;;;;;;6.70;2.70;;;13.40;99.90;;;;;;5072181;28;20195;-74
2023/05/08 02:07:50;;;;;;;5.65;2.15;;;13.40;99.90;;;;;;5072311;28;20629;-73
2023/05/08 02:10:17;;;;;;;7.07;2.83;;;13.40;99.90;;;;;;5072539;28;20207;-73
2023/05/08 02:12:45;;;;;;;10.00;3.30;;;13.30;99.90;;;;;;5071980;28;20212;-73
2023/05/08 02:15:14;;;;;;;9.38;3.70;;;13.30;99.90;;;;;;5072238;28;20617;-73
2023/05/08 02:17:40;;;;;;;15.10;5.17;;;13.30;99.90;;;;;;5071897;28;20172;-73
2023/05/08 02:20:13;;;;;;;8.93;4.00;;;13.30;99.90;;;;;;5071955;28;20164;-74
2023/05/08 02:22:43;;;;;;;12.18;4.53;;;13.20;99.90;;;;;;5085060;28;20656;-74
2023/05/08 02:25:13;;;;;;;9.63;4.38;;;13.10;99.90;;;;;;5092210;28;20294;-74
2023/05/08 02:27:44;;;;;;;15.48;5.07;;;13.10;99.90;;;;;;5091599;28;20183;-77
2023/05/08 02:30:15;;;;;;;19.73;5.57;;;13.10;99.90;;;;;;5077200;28;20186;-73
2023/05/08 02:32:46;;;;;;;12.15;5.10;;;13.20;99.90;;;;;;5082034;28;20230;-75
2023/05/08 02:35:15;;;;;;;9.98;5.38;;;13.10;99.90;;;;;;5072016;28;20746;-74
2023/05/08 02:37:47;;;;;;;15.00;5.57;;;13.10;99.90;;;;;;5074177;28;20208;-74
2023/05/08 02:40:15;;;;;;;13.52;5.45;;;13.10;99.90;;;;;;5080298;28;20179;-73
2023/05/08 02:42:41;;;;;;;13.95;4.68;;;13.00;99.90;;;;;;5088077;28;20256;-76
2023/05/08 02:45:08;;;;;;;9.07;4.68;;;13.10;99.90;;;;;;5073343;28;20231;-74
2023/05/08 02:47:51;;;;;;;14.93;5.70;;;13.10;99.90;;;;;;5075002;28;20199;-74
2023/05/08 02:50:34;;;;;;;13.32;5.68;;;13.00;99.90;;;;;;5085566;28;20179;-74
2023/05/08 02:53:04;;;;;;;13.30;5.50;;;13.00;99.90;;;;;;5091641;28;20643;-74
2023/05/08 02:55:41;;;;;;;13.80;5.70;;;13.10;99.90;;;;;;5091645;28;20624;-75
2023/05/08 02:58:33;;;;;;;14.77;5.07;;;13.10;99.90;;;;;;5091530;28;20266;-75
2023/05/08 03:01:06;;;;;;;13.70;5.40;;;13.10;99.90;;;;;;5086459;28;20191;-76
2023/05/08 03:03:44;;;;;;;15.85;5.93;;;13.10;99.90;;;;;;5091499;28;20242;-75
2023/05/08 03:06:19;;;;;;;11.50;5.10;;;12.90;99.90;;;;;;5091486;28;20172;-76
2023/05/08 03:08:46;;;;;;;13.30;5.53;;;13.10;99.90;;;;;;5090844;28;20167;-77
2023/05/08 03:11:16;;;;;;;15.07;5.70;;;13.20;99.90;;;;;;5091286;28;20251;-74
2023/05/08 03:13:45;;;;;;;10.95;5.00;;;13.20;99.90;;;;;;5091103;28;20177;-75
2023/05/08 03:16:16;;;;;;;11.55;5.32;;;13.20;99.90;;;;;;5091410;28;20168;-74
2023/05/08 03:18:48;;;;;;;13.35;4.82;;;13.20;99.90;;;;;;5091131;28;20179;-75
2023/05/08 03:21:18;;;;;;;11.73;5.32;;;13.00;99.90;;;;;;5057056;28;20175;-75
2023/05/08 03:23:46;;;;;;;10.27;4.82;;;13.20;99.90;;;;;;5090420;28;20334;-74
2023/05/08 03:26:18;;;;;;;10.98;4.97;;;13.30;99.90;;;;;;5078422;28;20185;-76
2023/05/08 03:28:47;;;;;;;11.43;5.03;;;13.20;99.90;;;;;;5086427;28;20207;-73
2023/05/08 03:31:17;;;;;;;11.57;5.10;;;13.10;99.90;;;;;;5085245;28;20188;-73
2023/05/08 03:33:44;;;;;;;8.65;4.70;;;13.10;99.90;;;;;;5070290;28;20224;-74
2023/05/08 03:36:10;;;;;;;13.73;5.30;;;13.10;99.90;;;;;;5070726;28;20259;-74
2023/05/08 03:38:36;;;;;;;11.82;5.35;;;13.20;99.90;;;;;;5084946;28;20649;-73
2023/05/08 03:41:02;;;;;;;10.88;4.90;;;13.10;99.90;;;;;;5090642;28;20258;-73
2023/05/08 03:43:30;;;;;;;11.95;4.72;;;13.20;99.90;;;;;;5077396;28;20223;-73
2023/05/08 03:45:56;;;;;;;13.10;4.35;;;13.20;99.90;;;;;;5087973;28;20184;-73
2023/05/08 03:48:22;;;;;;;11.82;4.82;;;13.30;99.90;;;;;;5090955;28;20184;-73
2023/05/08 03:50:49;;;;;;;10.80;4.22;;;13.20;99.90;;;;;;5090792;28;20188;-73
2023/05/08 03:53:15;;;;;;;9.98;4.93;;;13.10;99.90;;;;;;5089553;28;20480;-78
2023/05/08 03:55:41;;;;;;;6.57;3.80;;;13.10;99.90;;;;;;5091091;28;20699;-79
2023/05/08 03:58:34;;;;;;;11.68;4.57;;;13.10;99.90;;;;;;5092663;28;20176;-78
2023/05/08 04:01:03;;;;;;;8.40;3.70;;;13.10;99.90;;;;;;5087246;28;20187;-78
2023/05/08 04:03:37;;;;;;;10.18;3.35;;;13.10;99.90;;;;;;5094536;28;20211;-79
2023/05/08 04:06:30;;;;;;;9.88;3.70;;;13.20;99.90;;;;;;5094998;28;20670;-78
2023/05/08 04:09:36;;;;;;;7.45;3.38;;;13.20;99.90;;;;;;5070543;28;20707;-79
2023/05/08 04:12:04;;;;;;;9.73;3.17;;;13.20;99.90;;;;;;5074590;28;20208;-79
2023/05/08 04:14:42;;;;;;;6.93;2.42;;;13.30;99.90;;;;;;5074445;28;20180;-79
2023/05/08 04:17:10;;;;;;;7.95;2.97;;;13.30;99.90;;;;;;5074428;28;20259;-78
2023/05/08 04:19:41;;;;;;;8.07;2.40;;;13.50;99.90;;;;;;5074892;28;20184;-78
2023/05/08 04:22:09;;;;;;;6.90;2.60;;;13.40;99.90;;;;;;5074379;28;20176;-78
2023/05/08 04:24:40;;;;;;;6.03;2.58;;;13.30;99.90;;;;;;5089892;28;20219;-79
2023/05/08 04:27:08;;;;;;;5.63;2.80;;;13.30;99.90;;;;;;5094871;28;20164;-78
2023/05/08 04:29:33;;;;;;;6.70;2.90;;;13.30;99.90;;;;;;5094338;28;20214;-79
2023/05/08 04:32:00;;;;;;;6.95;2.78;;;13.30;99.90;;;;;;5094404;28;20168;-79
2023/05/08 04:34:27;;;;;;;7.00;2.90;;;13.20;99.90;;;;;;5096230;28;20590;-73
2023/05/08 04:36:53;;;;;;;9.52;3.05;;;13.20;99.90;;;;;;5094351;28;20200;-75
2023/05/08 04:39:21;;;;;;;6.53;3.17;;;13.20;99.90;;;;;;5096885;28;20694;-74
2023/05/08 04:41:47;;;;;;;6.30;3.20;;;13.20;99.90;;;;;;5095301;28;20180;-75
2023/05/08 04:44:13;;;;;;;12.53;3.63;;;13.10;99.90;;;;;;5094441;28;20213;-75
2023/05/08 04:46:38;;;;;;;9.90;3.60;;;13.10;99.90;;;;;;5061208;28;20628;-76
2023/05/08 04:49:04;;;;;;;10.53;3.87;;;13.10;99.90;;;;;;5073947;28;20173;-76
2023/05/08 04:51:30;;;;;;;6.68;4.10;;;;;;;;;;5073719;28;20747;-75
2023/05/08 04:53:56;;;;;;;9.40;3.57;;;13.10;99.90;;;;;;5073720;28;20165;-75
2023/05/08 04:56:22;;;;;;;7.35;3.60;;;13.10;99.90;;;;;;5073546;28;20180;-74
2023/05/08 04:58:47;;;;;;;10.53;4.10;;;13.20;99.90;;;;;;5073661;28;20175;-75
2023/05/08 05:01:13;;;;;;;10.05;4.13;;;13.20;99.90;;;;;;5073510;28;20218;-74
2023/05/08 05:03:39;;;;;;;8.20;4.13;;;13.10;99.90;;;;;;5073524;28;20648;-76
2023/05/08 05:06:04;;;;;;;10.45;4.20;;;12.30;99.90;;;;;;5073324;28;20183;-76
2023/05/08 05:08:30;;;;;;;9.35;4.55;;;13.10;99.90;;;;;;5071966;28;20208;-76
2023/05/08 05:10:56;;;;;;;13.33;5.27;;;13.00;99.90;;;;;;5073305;28;20196;-76
2023/05/08 05:13:21;;;;;;;9.17;4.57;;;13.00;99.90;;;;;;5073358;28;20173;-74
2023/05/08 05:15:50;;;;;;;9.15;3.90;;;13.00;99.90;;;;;;5073419;28;20223;-76
2023/05/08 05:18:15;;;;;;;9.23;4.03;;;12.90;99.90;;;;;;5085802;28;20259;-77
2023/05/08 05:20:41;;;;;;;8.53;3.60;;;12.80;99.90;;;;;;5093270;28;20601;-75
2023/05/08 05:23:07;;;;;;;8.67;4.10;;;12.80;99.90;;;;;;5093023;28;20255;-75
2023/05/08 05:25:33;;;;;;;9.87;4.53;;;12.80;99.90;;;;;;5091900;28;20183;-76
2023/05/08 05:27:59;;;;;;;8.40;3.93;;;12.80;99.90;;;;;;5078761;28;20180;-76
2023/05/08 05:30:24;;;;;;;6.43;3.70;;;12.80;99.90;;;;;;5081631;28;20176;-76
2023/05/08 05:32:50;;;;;;;8.27;4.03;;;12.80;99.90;;;;;;5075420;28;20235;-76
2023/05/08 05:35:15;;;;;;;9.13;4.57;;;12.70;99.90;;;;;;5073058;28;20252;-76
2023/05/08 05:37:41;;;;;;;10.13;4.30;;;12.80;99.90;;;;;;5073078;28;20679;-76
2023/05/08 05:40:07;;;;;;;10.23;4.33;;;12.80;99.90;;;;;;5085906;28;20253;-76
2023/05/08 05:42:33;;;;;;;8.23;4.33;;;12.90;99.90;;;;;;5088710;28;20183;-76
2023/05/08 05:45:00;;;;;;;12.13;5.03;;;12.80;99.90;;;;;;5092696;28;20208;-75
2023/05/08 05:47:26;;;;;;;9.17;4.47;;;12.90;99.90;;;;;;5093085;28;20164;-74
2023/05/08 05:49:51;;;;;;;7.90;4.10;;;12.90;99.90;;;;;;5092425;28;20172;-80
2023/05/08 05:52:17;;;;;;;8.60;4.63;;;12.80;99.90;;;;;;5092785;28;20203;-79
2023/05/08 05:54:43;;;;;;;9.83;4.23;;;11.80;99.90;;;;;;5092382;28;20172;-78
2023/05/08 05:57:08;;;;;;;9.63;4.60;;;12.80;99.90;;;;;;5092355;28;20234;-80
2023/05/08 05:59:34;;;;;;;9.00;4.50;;;12.90;99.90;;;;;;5081361;28;20669;-81
2023/05/08 06:02:00;;;;;;;7.63;4.73;;;12.90;99.90;;;;;;5093026;28;20720;-81
2023/05/08 06:04:25;;;;;;;10.23;4.70;;;13.00;99.90;;;;;;5092432;28;20589;-80
2023/05/08 06:06:51;;;;;;;9.23;4.50;;;13.00;99.90;;;;;;5092767;28;20297;-80
2023/05/08 06:09:16;;;;;;;9.97;4.97;;;13.00;99.90;;;;;;5092141;28;20233;-81
2023/05/08 06:11:42;;;;;;;9.20;4.90;;;13.00;99.90;;;;;;5092176;28;20172;-77
2023/05/08 06:14:08;;;;;;;12.87;4.90;;;13.00;99.90;;;;;;5091043;28;20187;-78
2023/05/08 06:16:34;;;;;;;7.43;4.93;;;12.90;99.90;;;;;;5092506;28;20282;-74
2023/05/08 06:19:00;;;;;;;9.80;4.80;;;13.00;99.90;;;;;;5090965;28;20642;-78
2023/05/08 06:21:27;;;;;;;7.30;4.93;;;13.00;99.90;;;;;;5092254;28;20179;-78
2023/05/08 06:23:53;;;;;;;7.80;4.90;;;13.00;99.90;;;;;;5092112;28;20663;-74
2023/05/08 06:26:20;;;;;;;8.27;4.93;;;13.00;99.90;;;;;;5088637;28;20168;-75
2023/05/08 06:28:45;;;;;;;8.87;5.00;;;12.90;99.90;;;;;;5072580;28;20176;-75
2023/05/08 06:31:11;;;;;;;6.20;3.97;;;13.00;99.90;;;;;;5073122;28;20587;-74
2023/05/08 06:33:37;;;;;;;8.23;5.17;;;12.90;99.90;;;;;;5071591;28;20215;-73
2023/05/08 06:36:04;;;;;;;8.47;5.23;;;12.90;99.90;;;;;;5071787;28;20180;-73
2023/05/08 06:38:30;;;;;;;8.47;5.03;;;13.00;99.90;;;;;;5074688;28;20181;-73
2023/05/08 06:40:56;;;;;;;6.37;3.43;;;12.90;99.90;;;;;;5090673;28;20635;-76
2023/05/08 06:43:21;;;;;;;6.17;3.57;;;12.80;99.90;;;;;;5079351;28;20299;-75
2023/05/08 06:45:47;;;;;;;5.63;3.33;;;12.80;99.90;;;;;;5091954;28;20175;-78
2023/05/08 06:48:13;;;;;;;6.60;3.53;;;12.80;99.90;;;;;;5091911;28;20221;-74
2023/05/08 06:50:39;;;;;;;5.13;3.33;;;12.90;99.90;;;;;;5079060;28;20184;-76
2023/05/08 06:53:06;;;;;;;6.20;3.07;;;12.80;99.90;;;;;;5071573;28;20176;-79
2023/05/08 06:55:32;;;;;;;3.07;2.40;;;12.70;99.90;;;;;;5071029;28;20169;-75
2023/05/08 06:57:57;;;;;;;4.80;2.25;;;12.80;99.90;;;;;;5071497;28;20219;-73
2023/05/08 07:00:23;;;;;;;3.60;1.80;;;12.70;99.90;;;;;;5053610;28;20168;-75
2023/05/08 07:02:48;;;;;;;3.13;2.10;;;12.80;99.90;;;;;;5077207;28;20192;-75
2023/05/08 07:05:14;;;;;;;4.17;2.43;;;12.80;99.90;;;;;;5092666;28;20679;-74
2023/05/08 07:07:41;;;;;;;5.80;2.07;;;12.80;99.90;;;;;;5088386;28;20178;-78
2023/05/08 07:10:07;;;;;;;3.97;2.00;;;12.90;99.90;;;;;;5100159;28;20206;-76
2023/05/08 07:12:33;;;;;;;3.53;1.73;;;12.80;99.90;;;;;;5091909;28;20176;-74
2023/05/08 07:14:58;;;;;;;4.77;2.03;;;12.90;99.90;;;;;;5092441;28;20186;-74
2023/05/08 07:17:24;;;;;;;3.47;1.50;;;12.90;99.90;;;;;;5072926;28;20179;-75
2023/05/08 07:19:50;;;;;;;2.97;1.20;;;12.90;99.90;;;;;;5091328;28;20624;-73
2023/05/08 07:22:16;;;;;;;1.83;1.50;;;12.90;99.90;;;;;;5090834;28;20228;-74
2023/05/08 07:24:41;;;;;;;1.60;1.00;;;12.90;99.90;;;;;;5091262;28;20203;-74
2023/05/08 07:27:07;;;;;;;2.37;1.43;;;12.90;99.90;;;;;;5091285;28;20168;-74
2023/05/08 07:29:34;;;;;;;3.70;1.27;;;13.00;99.90;;;;;;5091222;28;20168;-75
2023/05/08 07:32:00;;;;;;;4.00;1.40;;;13.00;99.90;;;;;;5091191;28;20183;-77
2023/05/08 07:34:26;;;;;;;2.53;1.60;;;13.00;99.90;;;;;;5090985;28;20715;-75
2023/05/08 07:36:52;;;;;;;2.83;1.50;;;13.00;99.90;;;;;;5091227;28;20164;-74
2023/05/08 07:39:18;;;;;;;1.97;1.00;;;13.00;99.90;;;;;;5090924;28;20605;-73
2023/05/08 07:41:44;;;;;;;2.63;1.10;;;13.10;99.90;;;;;;5090847;28;20171;-74
2023/05/08 07:44:10;;;;;;;3.80;1.03;;;16.60;99.90;;;;;;5091211;28;20293;-72
2023/05/08 07:46:36;;;;;;;2.07;0.80;;;13.20;99.90;;;;;;5091085;28;20219;-73
2023/05/08 07:49:02;;;;;;;2.57;1.07;;;13.20;99.90;;;;;;5090970;28;20178;-72
2023/05/08 07:51:28;;;;;;;3.33;0.70;;;13.30;99.90;;;;;;5090617;28;20251;-73
2023/05/08 07:53:54;;;;;;;1.73;0.70;;;13.30;99.90;;;;;;5084765;28;20254;-74
2023/05/08 07:56:21;;;;;;;2.33;0.90;;;13.30;99.90;;;;;;5090157;28;20172;-74
2023/05/08 07:58:47;;;;;;;1.73;0.70;;;13.50;99.90;;;;;;5090901;28;20183;-74
2023/05/08 08:01:12;;;;;;;1.27;0.87;;;13.50;99.90;;;;;;5090663;28;20635;-74
2023/05/08 08:03:38;;;;;;;1.00;0.50;;;13.40;99.90;;;;;;5090659;28;20290;-72
2023/05/08 08:06:04;;;;;;;0.80;0.70;;;13.30;99.90;;;;;;5090948;28;20256;-74
2023/05/08 08:08:29;;;;;;;1.13;0.80;;;13.40;99.90;;;;;;5090447;28;20183;-74
2023/05/08 08:10:55;;;;;;;0.70;0.50;;;13.30;99.90;;;;;;5090739;28;20647;-73
2023/05/08 08:13:21;;;;;;;1.47;0.50;;;13.30;99.90;;;;;;5090995;28;20180;-76
2023/05/08 08:15:46;;;;;;;0.73;0.60;;;13.30;99.90;;;;;;5089070;28;20635;-77
2023/05/08 08:18:12;;;;;;;1.17;0.70;;;13.40;99.90;;;;;;5070635;28;20184;-79
2023/05/08 08:20:38;;;;;;;1.43;0.53;;;13.40;99.90;;;;;;5071405;28;20168;-78
2023/05/08 08:23:04;;;;;;;1.70;0.57;;;13.40;99.90;;;;;;5071660;28;20188;-79
2023/05/08 08:25:30;;;;;;;1.80;0.60;;;13.20;99.90;;;;;;5070799;28;20176;-72
2023/05/08 08:27:57;;;;;;;1.33;0.47;;;13.20;99.90;;;;;;5053288;28;20188;-74
2023/05/08 08:30:22;;;;;;;10.10;1.53;;;13.20;99.90;;;;;;5066962;28;20184;-74
2023/05/08 08:32:48;;;;;;;1.33;0.60;;;13.30;99.90;;;;;;5087076;28;20208;-74
2023/05/08 08:35:14;;;;;;;1.17;0.70;;;13.40;99.90;;;;;;5083053;28;20428;-74
2023/05/08 08:37:39;;;;;;;2.83;0.53;;;13.30;99.90;;;;;;5071211;28;20310;-74
2023/05/08 08:40:06;;;;;;;0.30;0.30;;;13.40;99.90;;;;;;5090003;28;20183;-73
2023/05/08 08:42:31;;;;;;;1.67;0.50;;;13.30;99.90;;;;;;5091068;28;20693;-73
2023/05/08 08:44:57;;;;;;;0.77;0.50;;;13.30;99.90;;;;;;5093469;28;20212;-74
2023/05/08 08:47:28;;;;;;;0.63;0.30;;;13.30;99.90;;;;;;5092529;28;20175;-72
2023/05/08 08:49:54;;;;;;;0.60;0.30;;;13.30;99.90;;;;;;5082724;28;20173;-72
2023/05/08 08:52:45;;;;;;;0.93;0.47;;;13.00;99.90;;;;;;5087655;28;20833;-73
2023/05/08 08:55:15;;;;;;;0.73;0.40;;;13.60;99.90;;;;;;5094011;28;20233;-73
2023/05/08 08:57:59;;;;;;;1.57;0.90;;;13.90;99.90;;;;;;5093514;28;20176;-72
2023/05/08 09:00:30;;;;;;;0.68;0.47;;;14.00;99.90;;;;;;5093856;28;20164;-74
2023/05/08 09:02:55;;;;;;;1.65;0.65;;;14.10;99.90;;;;;;5094137;28;20233;-72
2023/05/08 09:05:23;;;;;;;1.90;0.80;;;14.20;99.90;;;;;;5093757;28;20614;-72
2023/05/08 09:07:49;;;;;;;1.20;0.50;;;14.40;99.90;;;;;;5092498;28;20164;-73
2023/05/08 09:10:15;;;;;;;0.25;0.20;;;14.60;99.90;;;;;;5075866;28;20220;-73
2023/05/08 09:12:41;;;;;;;0.95;0.60;;;14.40;99.90;;;;;;5092281;28;20289;-74
2023/05/08 09:15:07;;;;;;;2.75;0.70;;;14.50;99.90;;;;;;5093142;28;20179;-75
2023/05/08 09:17:32;;;;;;;2.35;0.80;;;14.70;99.90;;;;;;5093730;28;20210;-74
2023/05/08 09:19:59;;;;;;;2.08;0.90;;;14.60;99.90;;;;;;5095780;28;20652;-72
2023/05/08 09:22:26;;;;;;;2.42;0.85;;;14.50;99.90;;;;;;5096390;28;20167;-70
2023/05/08 09:24:57;;;;;;;4.00;0.93;;;14.60;99.90;;;;;;5082005;28;20232;-72
2023/05/08 09:27:25;;;;;;;2.05;0.80;;;14.70;99.90;;;;;;5075814;28;20172;-69
2023/05/08 09:30:05;;;;;;;4.13;1.10;;;14.70;99.90;;;;;;5078138;28;20198;-69
2023/05/08 09:32:32;;;;;;;2.30;0.90;;;14.80;99.90;;;;;;5092904;28;20163;-68
2023/05/08 09:34:58;;;;;;;2.67;1.08;;;14.30;99.90;;;;;;5092914;28;20225;-68
2023/05/08 09:37:25;;;;;;;4.10;0.98;;;14.40;99.90;;;;;;5078536;28;20183;-69
2023/05/08 09:39:51;;;;;;;1.70;0.90;;;14.40;99.90;;;;;;5072943;28;20210;-68
2023/05/08 09:42:17;;;;;;;2.67;1.00;;;14.30;99.90;;;;;;5080231;28;20219;-69
2023/05/08 09:44:46;;;;;;;1.35;1.00;;;14.10;99.90;;;;;;5073749;28;20629;-69
2023/05/08 09:47:14;;;;;;;2.92;0.93;;;14.10;99.90;;;;;;5072630;28;20191;-69
2023/05/08 09:50:02;;;;;;;2.72;0.82;;;14.00;99.90;;;;;;5072265;28;20187;-69
2023/05/08 09:52:29;;;;;;;1.80;1.02;;;14.10;99.90;;;;;;5072120;28;20218;-70
2023/05/08 09:55:06;;;;;;;4.85;1.42;;;14.20;99.90;;;;;;5072233;28;20171;-69
2023/05/08 09:57:37;;;;;;;1.15;0.68;;;14.20;99.90;;;;;;5072595;28;20188;-69
2023/05/08 10:00:10;;;;;;;2.60;1.10;;;14.00;99.90;;;;;;5072300;28;20196;-69
2023/05/08 10:02:36;;;;;;;3.22;1.10;;;13.80;99.90;;;;;;5092114;28;20237;-70
2023/05/08 10:05:22;;;;;;;2.00;0.90;;;13.80;99.90;;;;;;5092550;28;20207;-70
2023/05/08 10:07:48;;;;;;;2.42;1.27;;;13.80;99.90;;;;;;5073444;28;20423;-70
2023/05/08 10:10:20;;;;;;;3.17;1.20;;;13.80;99.90;;;;;;5072196;28;20169;-70
2023/05/08 10:12:46;;;;;;;2.55;1.23;;;13.70;99.90;;;;;;5084060;28;20211;-70
2023/05/08 10:15:12;;;;;;;2.33;1.20;;;13.70;99.90;;;;;;5077313;28;20632;-70
2023/05/08 10:17:45;;;;;;;3.53;0.95;;;13.70;99.90;;;;;;5079947;28;20180;-69
2023/05/08 10:20:14;;;;;;;3.10;1.33;;;13.70;99.90;;;;;;5088664;28;20186;-69
2023/05/08 10:22:42;;;;;;;2.13;1.20;;;13.80;99.90;;;;;;5092176;28;20180;-69
2023/05/08 10:25:15;;;;;;;2.50;1.00;;;13.90;99.90;;;;;;5091748;28;20613;-69
2023/05/08 10:27:51;;;;;;;1.15;1.05;;;14.00;99.90;;;;;;5092118;28;20184;-69
2023/05/08 10:30:22;;;;;;;2.65;0.90;;;13.90;99.90;;;;;;5091976;28;20205;-69
2023/05/08 10:32:51;;;;;;;2.22;1.00;;;14.10;99.90;;;;;;5091339;28;20235;-69
2023/05/08 10:35:17;;;;;;;1.85;1.05;;;12.60;99.90;;;;;;5091857;28;20191;-69
2023/05/08 10:37:46;;;;;;;2.10;1.00;;;14.40;99.90;;;;;;5091698;28;20191;-67
2023/05/08 10:40:14;;;;;;;2.42;1.10;;;14.60;99.90;;;;;;5090010;28;20175;-70
2023/05/08 10:42:40;;;;;;;2.17;1.20;;;14.70;99.90;;;;;;5085871;28;20266;-70
2023/05/08 10:45:07;;;;;;;0.65;0.65;;;14.70;99.90;;;;;;5091684;28;20218;-70
2023/05/08 10:48:10;;;;;;;1.98;1.02;;;14.90;99.90;;;;;;5077520;28;20644;-70
2023/05/08 10:50:45;;;;;;;1.55;1.10;;;14.70;99.90;;;;;;5077979;28;20561;-70
2023/05/08 10:53:25;;;;;;;2.60;1.10;;;14.70;99.90;;;;;;5083619;28;20258;-70
2023/05/08 10:55:51;;;;;;;3.28;1.10;;;14.70;99.90;;;;;;5084562;28;20173;-70
2023/05/08 10:58:29;;;;;;;1.63;1.05;;;14.70;99.90;;;;;;5070513;28;20173;-70
2023/05/08 11:01:03;;;;;;;1.80;0.90;;;14.70;99.90;;;;;;5088146;28;20528;-70
2023/05/08 11:03:30;;;;;;;0.90;0.80;;;14.80;99.90;;;;;;5090850;28;20679;-70
2023/05/08 11:05:57;;;;;;;4.03;1.10;;;14.80;99.90;;;;;;5089590;28;20180;-70
2023/05/08 11:08:26;;;;;;;1.95;1.15;;;14.80;99.90;;;;;;5089950;28;20172;-69
2023/05/08 11:11:05;;;;;;;3.33;1.33;;;15.00;99.90;;;;;;5067595;28;20309;-69
2023/05/08 11:13:41;;;;;;;1.67;1.33;;;15.00;99.90;;;;;;5070671;28;20645;-70
2023/05/08 11:16:09;;;;;;;2.42;0.98;;;14.90;99.90;;;;;;5069883;28;20637;-70
2023/05/08 11:18:35;;;;;;;2.03;1.17;;;14.70;99.90;;;;;;5070209;28;20165;-70
2023/05/08 11:21:03;;;;;;;3.22;1.50;;;14.90;99.90;;;;;;5070252;28;20179;-70
2023/05/08 11:23:29;;;;;;;3.33;1.33;;;14.80;99.90;;;;;;5070155;28;20188;-70
2023/05/08 11:26:05;;;;;;;2.97;1.15;;;14.80;99.90;;;;;;5090120;28;20179;-69
2023/05/08 11:28:52;;;;;;;2.50;1.45;;;14.90;99.90;;;;;;5090495;28;20279;-68
2023/05/08 11:31:18;;;;;;;1.42;1.02;;;14.90;99.90;;;;;;5083131;28;20191;-68
2023/05/08 11:33:43;;;;;;;1.90;1.20;;;14.80;99.90;;;;;;5089216;28;20218;-71
2023/05/08 11:36:21;;;;;;;3.10;1.13;;;14.90;99.90;;;;;;5091019;28;20191;-71
2023/05/08 11:39:07;;;;;;;1.70;1.30;;;14.80;99.90;;;;;;5086645;28;20172;-71
2023/05/08 11:41:34;;;;;;;3.80;1.58;;;14.80;99.90;;;;;;5070502;28;20176;-70
2023/05/08 11:44:12;;;;;;;4.28;1.30;;;14.70;99.90;;;;;;5070275;28;20208;-70
2023/05/08 11:46:50;;;;;;;2.17;1.60;;;14.60;99.90;;;;;;5070328;28;20194;-71
2023/05/08 11:49:17;;;;;;;3.88;1.70;;;14.60;99.90;;;;;;5052342;28;20263;-70
2023/05/08 11:51:49;;;;;;;4.70;1.70;;;14.70;99.90;;;;;;5080475;28;20160;-70
2023/05/08 11:54:18;;;;;;;2.58;1.20;;;14.80;99.90;;;;;;5089592;28;20172;-68
2023/05/08 11:56:46;;;;;;;4.03;1.35;;;14.90;99.90;;;;;;5089446;28;20222;-68
2023/05/08 11:59:12;;;;;;;3.25;1.58;;;15.10;99.90;;;;;;5071849;28;20182;-68
2023/05/08 12:01:38;;;;;;;3.97;1.30;;;15.10;99.90;;;;;;5072200;28;20536;-70
2023/05/08 12:04:05;;;;;;;3.50;1.20;;;15.10;99.90;;;;;;5090147;28;20641;-69
2023/05/08 12:06:32;;;;;;;3.50;1.38;;;15.20;99.90;;;;;;5090462;28;20531;-68
2023/05/08 12:09:00;;;;;;;2.17;1.30;;;15.20;99.90;;;;;;5090295;28;20214;-68
2023/05/08 12:11:26;;;;;;;2.20;1.13;;;15.00;99.90;;;;;;5090552;28;20175;-68
2023/05/08 12:13:53;;;;;;;4.40;1.20;;;15.00;99.90;;;;;;5072373;28;20221;-69
2023/05/08 12:16:20;;;;;;;1.50;1.40;;;15.00;99.90;;;;;;5090879;28;20176;-67
2023/05/08 12:18:49;;;;;;;2.35;1.08;;;14.80;99.90;;;;;;5077687;28;20640;-68
2023/05/08 12:21:15;;;;;;;3.15;1.27;;;15.00;99.90;;;;;;5094973;28;20168;-68
2023/05/08 12:23:41;;;;;;;2.97;1.05;;;15.00;99.90;;;;;;5094515;28;20274;-68
2023/05/08 12:26:07;;;;;;;1.90;0.93;;;15.10;99.90;;;;;;5094637;28;20184;-68
2023/05/08 12:28:33;;;;;;;1.33;0.93;;;15.10;99.90;;;;;;5094356;28;20193;-69
2023/05/08 12:30:59;;;;;;;2.47;0.98;;;15.30;99.90;;;;;;5091335;28;20266;-69
2023/05/08 12:33:25;;;;;;;2.15;1.17;;;15.40;99.90;;;;;;5077574;28;20295;-68
2023/05/08 12:35:51;;;;;;;2.83;0.98;;;15.50;99.90;;;;;;5074104;28;20724;-68
2023/05/08 12:38:17;;;;;;;2.92;1.00;;;15.40;99.90;;;;;;5075636;28;20267;-68
2023/05/08 12:40:44;;;;;;;2.13;0.80;;;15.50;99.90;;;;;;5080579;28;20184;-69
2023/05/08 12:43:10;;;;;;;3.05;1.10;;;15.40;99.90;;;;;;5098983;28;20191;-69
2023/05/08 12:45:40;;;;;;;1.42;0.88;;;15.30;99.90;;;;;;5094070;28;20294;-68
2023/05/08 12:48:11;;;;;;;1.83;0.90;;;15.40;99.90;;;;;;5074415;28;20477;-69
2023/05/08 12:50:41;;;;;;;2.72;1.05;;;15.50;99.90;;;;;;5077099;28;20205;-67
2023/05/08 12:53:17;;;;;;;2.15;0.70;;;15.70;99.90;;;;;;5091101;28;20199;-69
2023/05/08 12:56:20;;;;;;;2.78;1.20;;;15.70;99.90;;;;;;5093978;28;20701;-68